Terminal Aerodrome Forecast
Issued by NWS

Home | Current Version | Previous Version | Text Only | Print | Product List | Glossary On
Versions: 1 2 3 4 5 6 7 8 9 10 11 12 13 14 15 16 17 18 19 20 21 22 23 24 25 26
000
FTUS43 KDMX 221133
TAFFOD
TAF
KFOD 221133Z 2212/2312 20008KT P6SM SKC
     FM221800 26012G19KT P6SM FEW250
     FM230100 30006KT P6SM FEW250
     FM230900 36007KT P6SM BKN060=

USA.gov is the U.S. government's official web portal to all federal, state and local government web resources and services.